Time;durP1;ratioP1;P1;durP2;ratioP2;P2;SDS_P1;SDS_P2;PMS_P1;PMS_P2;Temp;Humidity;BMP_temperature;BMP_pressure;BME280_temperature;BME280_humidity;BME280_pressure;Samples;Min_cycle;Max_cycle;Signal;HPM_P1;HPM_P2
2023/03/28 00:03:35;;;;;;;3.73;2.60;;;6.30;97.50;;;;;;10476107;28;20688;-84
2023/03/28 00:08:39;;;;;;;3.40;3.10;;;6.30;96.60;;;;;;10468407;28;20404;-83
2023/03/28 00:13:42;;;;;;;4.93;3.17;;;6.30;97.10;;;;;;10496376;28;20206;-83
2023/03/28 00:18:44;;;;;;;4.17;2.97;;;6.30;96.90;;;;;;10473595;28;20582;-83
2023/03/28 00:23:51;;;;;;;3.20;3.00;;;6.30;96.70;;;;;;10483929;28;20191;-84
2023/03/28 00:28:55;;;;;;;3.77;3.30;;;6.30;96.60;;;;;;10482971;28;20227;-83
2023/03/28 00:33:57;;;;;;;3.50;3.03;;;6.30;96.90;;;;;;10471491;28;20196;-83
2023/03/28 00:39:00;;;;;;;5.57;3.60;;;6.30;97.20;;;;;;10479203;28;20214;-83
2023/03/28 00:44:36;;;;;;;3.53;3.17;;;6.30;96.60;;;;;;10504518;28;20714;-84
2023/03/28 00:49:39;;;;;;;6.67;3.70;;;6.30;96.60;;;;;;10495534;28;20716;-83
2023/03/28 00:54:42;;;;;;;3.67;3.37;;;6.20;96.70;;;;;;10480308;28;20217;-83
2023/03/28 00:59:44;;;;;;;4.17;3.63;;;6.20;96.70;;;;;;10494479;28;20201;-83
2023/03/28 01:04:56;;;;;;;3.80;3.23;;;6.20;96.90;;;;;;10459614;28;20211;-84
2023/03/28 01:09:59;;;;;;;3.40;3.00;;;6.20;97.10;;;;;;10460341;28;20227;-84
2023/03/28 01:15:03;;;;;;;4.00;3.23;;;6.20;96.70;;;;;;10475662;28;20237;-84
2023/03/28 01:20:31;;;;;;;7.20;3.43;;;6.20;96.70;;;;;;10480197;28;20196;-83
2023/03/28 01:26:12;;;;;;;3.30;3.00;;;6.10;95.50;;;;;;10505340;28;20215;-83
2023/03/28 01:31:43;;;;;;;4.80;3.13;;;6.00;95.70;;;;;;10471586;28;20218;-83
2023/03/28 01:37:18;;;;;;;3.13;2.87;;;5.90;94.90;;;;;;10491144;28;20748;-83
2023/03/28 01:42:32;;;;;;;6.10;2.83;;;5.60;95.60;;;;;;10459995;28;20195;-83
2023/03/28 01:47:38;;;;;;;4.20;3.30;;;5.50;96.30;;;;;;10449524;28;20657;-83
2023/03/28 01:52:47;;;;;;;3.30;3.03;;;5.40;95.90;;;;;;10521858;28;20734;-83
2023/03/28 01:57:57;;;;;;;3.33;3.07;;;5.40;95.70;;;;;;10458500;28;20643;-83
2023/03/28 02:03:04;;;;;;;4.27;3.33;;;5.30;96.60;;;;;;10444699;28;20255;-83
2023/03/28 02:08:14;;;;;;;6.10;3.23;;;5.30;96.00;;;;;;10477230;28;20318;-83
2023/03/28 02:13:25;;;;;;;5.03;3.50;;;5.30;95.90;;;;;;10453892;28;20201;-83
2023/03/28 02:18:40;;;;;;;3.80;3.50;;;5.20;96.90;;;;;;10479562;28;20212;-83
2023/03/28 02:24:02;;;;;;;3.83;3.27;;;5.20;97.00;;;;;;10465954;28;20206;-84
2023/03/28 02:29:37;;;;;;;4.00;3.60;;;5.30;97.00;;;;;;10472279;28;20226;-84
2023/03/28 02:34:54;;;;;;;4.37;3.50;;;5.30;96.70;;;;;;10492411;28;20210;-83
2023/03/28 02:40:15;;;;;;;4.53;3.30;;;5.30;96.40;;;;;;10469136;28;20202;-83
2023/03/28 02:45:45;;;;;;;3.73;3.43;;;5.30;96.40;;;;;;10459063;28;20213;-85
2023/03/28 02:50:58;;;;;;;5.37;3.67;;;5.30;95.80;;;;;;10477946;28;20315;-84
2023/03/28 02:56:06;;;;;;;14.47;6.17;;;5.10;95.70;;;;;;10486307;28;20233;-83
2023/03/28 03:01:28;;;;;;;7.63;4.10;;;5.10;96.20;;;;;;10478369;28;20224;-83
2023/03/28 03:06:33;;;;;;;15.93;6.20;;;5.00;96.00;;;;;;10515221;28;20216;-82
2023/03/28 03:11:37;;;;;;;3.43;3.13;;;4.90;95.90;;;;;;10499790;28;20220;-83
2023/03/28 03:16:41;;;;;;;3.43;3.23;;;4.80;95.60;;;;;;10493936;28;20225;-83
2023/03/28 03:21:44;;;;;;;4.83;3.70;;;4.60;96.20;;;;;;10500704;28;20291;-83
2023/03/28 03:26:48;;;;;;;4.10;3.30;;;4.50;96.40;;;;;;10485283;28;20219;-82
2023/03/28 03:31:51;;;;;;;3.87;3.27;;;4.50;96.30;;;;;;10489058;28;20216;-83
2023/03/28 03:37:10;;;;;;;4.03;3.73;;;4.50;96.60;;;;;;10471040;28;20606;-83
2023/03/28 03:42:14;;;;;;;4.43;4.03;;;4.30;96.20;;;;;;10490763;28;20204;-84
2023/03/28 03:47:18;;;;;;;7.50;3.90;;;4.20;96.20;;;;;;10470086;28;20286;-83
2023/03/28 03:52:20;;;;;;;4.30;3.90;;;4.20;96.40;;;;;;10491278;28;20199;-83
2023/03/28 03:57:24;;;;;;;5.43;3.40;;;4.10;96.30;;;;;;10490844;28;20313;-83
2023/03/28 04:02:33;;;;;;;4.60;3.90;;;4.00;96.40;;;;;;10481065;28;20201;-83
2023/03/28 04:07:37;;;;;;;4.90;3.70;;;4.00;96.40;;;;;;10468777;28;20218;-83
2023/03/28 04:12:43;;;;;;;6.67;3.77;;;3.90;96.80;;;;;;10493996;28;20202;-82
2023/03/28 04:17:48;;;;;;;4.63;4.23;;;3.90;96.80;;;;;;10504778;28;20269;-85
2023/03/28 04:22:53;;;;;;;6.53;4.20;;;3.90;96.80;;;;;;10484693;28;20232;-82
2023/03/28 04:28:00;;;;;;;4.50;4.10;;;3.80;96.80;;;;;;10525905;28;20605;-83
2023/03/28 04:33:06;;;;;;;5.17;4.37;;;3.70;97.10;;;;;;10464819;28;20573;-84
2023/03/28 04:38:16;;;;;;;4.63;4.27;;;3.80;96.90;;;;;;10470674;28;20230;-84
2023/03/28 04:43:21;;;;;;;6.37;4.60;;;3.80;97.00;;;;;;10481283;28;20573;-84
2023/03/28 04:48:28;;;;;;;6.67;4.30;;;3.80;97.20;;;;;;10492733;28;20222;-84
2023/03/28 04:53:31;;;;;;;4.43;3.83;;;3.80;96.70;;;;;;10493820;28;20203;-85
2023/03/28 04:59:03;;;;;;;6.40;4.57;;;3.80;96.60;;;;;;10523544;28;20735;-84
2023/03/28 05:04:06;;;;;;;4.73;3.90;;;3.80;96.40;;;;;;10523073;28;20200;-84
2023/03/28 05:09:11;;;;;;;5.77;5.00;;;3.70;96.40;;;;;;10505671;28;20208;-82
2023/03/28 05:14:14;;;;;;;8.10;5.70;;;3.70;97.10;;;;;;10512877;28;20197;-85
2023/03/28 05:19:24;;;;;;;12.13;7.30;;;3.70;96.60;;;;;;10503881;28;20610;-84
2023/03/28 05:24:37;;;;;;;10.80;7.93;;;3.70;96.80;;;;;;10500331;28;20209;-84
2023/03/28 05:29:46;;;;;;;4.47;4.07;;;3.60;96.70;;;;;;10469149;28;20214;-81
2023/03/28 05:34:48;;;;;;;7.30;5.80;;;3.70;96.80;;;;;;10446471;28;20226;-84
2023/03/28 05:39:50;;;;;;;10.60;8.67;;;3.70;97.10;;;;;;10481548;28;20196;-85
2023/03/28 05:44:55;;;;;;;5.30;3.93;;;3.70;97.00;;;;;;10473572;28;20214;-82
2023/03/28 05:50:13;;;;;;;5.87;4.00;;;3.70;96.50;;;;;;10456738;28;20218;-84
2023/03/28 05:55:15;;;;;;;5.30;4.03;;;3.80;96.70;;;;;;10464996;28;20275;-82
2023/03/28 06:00:22;;;;;;;10.70;5.57;;;3.80;96.80;;;;;;10454298;28;20213;-82
2023/03/28 06:05:27;;;;;;;11.17;5.97;;;3.80;97.20;;;;;;10482152;28;20279;-82
2023/03/28 06:10:30;;;;;;;5.73;4.80;;;3.90;96.70;;;;;;10475549;28;20227;-84
2023/03/28 06:16:12;;;;;;;6.50;4.50;;;3.90;96.60;;;;;;10424507;28;20257;-84
2023/03/28 06:21:15;;;;;;;5.97;4.30;;;3.80;97.20;;;;;;10482900;28;20289;-81
2023/03/28 06:26:17;;;;;;;4.90;4.33;;;3.90;97.10;;;;;;10482605;28;20223;-82
2023/03/28 06:31:22;;;;;;;7.83;3.77;;;4.00;97.30;;;;;;10465518;28;20250;-82
2023/03/28 06:36:25;;;;;;;5.10;4.60;;;4.10;97.20;;;;;;10480504;28;20215;-81
2023/03/28 06:41:27;;;;;;;7.17;4.70;;;4.20;97.00;;;;;;10463218;28;20211;-82
2023/03/28 06:46:31;;;;;;;11.50;4.60;;;4.20;97.10;;;;;;10445476;28;20231;-81
2023/03/28 06:51:34;;;;;;;8.30;4.83;;;4.30;97.10;;;;;;10484361;28;20705;-83
2023/03/28 06:56:36;;;;;;;7.27;4.50;;;4.40;97.10;;;;;;10481099;28;20227;-83
2023/03/28 07:01:40;;;;;;;5.90;4.93;;;4.50;97.00;;;;;;10461264;28;20200;-83
2023/03/28 07:06:48;;;;;;;6.30;4.57;;;4.70;97.30;;;;;;10480191;28;20228;-83
2023/03/28 07:11:50;;;;;;;9.43;4.10;;;4.80;96.20;;;;;;10484927;28;20229;-83
2023/03/28 07:16:55;;;;;;;4.73;4.27;;;4.90;96.50;;;;;;10471848;28;20764;-82
2023/03/28 07:21:57;;;;;;;10.47;4.30;;;5.00;96.90;;;;;;10490526;28;20287;-82
2023/03/28 07:27:03;;;;;;;6.60;4.33;;;5.20;94.90;;;;;;10459473;28;20225;-82
2023/03/28 07:32:07;;;;;;;6.33;4.70;;;5.40;95.60;;;;;;10481089;28;20213;-82
2023/03/28 07:37:10;;;;;;;4.80;4.07;;;5.70;95.90;;;;;;10496570;28;20236;-82
2023/03/28 07:42:28;;;;;;;6.30;4.67;;;6.00;95.00;;;;;;10452778;28;20225;-82
2023/03/28 07:47:32;;;;;;;7.90;4.17;;;6.30;95.20;;;;;;10461890;28;20221;-83
2023/03/28 07:52:34;;;;;;;5.40;3.90;;;6.40;94.40;;;;;;10481581;28;20216;-83
2023/03/28 07:57:36;;;;;;;13.73;9.33;;;6.60;92.80;;;;;;10449320;28;20226;-82
2023/03/28 08:03:00;;;;;;;5.90;3.80;;;6.70;93.10;;;;;;10486296;28;20209;-83
2023/03/28 08:08:04;;;;;;;4.70;3.80;;;7.00;93.50;;;;;;10469590;28;20223;-83
2023/03/28 08:13:06;;;;;;;8.27;4.27;;;7.20;92.30;;;;;;10469926;28;20281;-83
2023/03/28 08:18:12;;;;;;;5.60;3.83;;;7.60;91.80;;;;;;10474238;28;20739;-83
2023/03/28 08:23:14;;;;;;;5.33;4.00;;;8.00;91.10;;;;;;10485821;28;20673;-83
2023/03/28 08:28:16;;;;;;;5.77;3.10;;;8.30;90.10;;;;;;10486507;28;20209;-83
2023/03/28 08:33:20;;;;;;;4.90;3.43;;;8.40;90.20;;;;;;10467571;28;20190;-83
2023/03/28 08:38:23;;;;;;;5.60;3.03;;;8.60;90.60;;;;;;10467166;28;20219;-83
2023/03/28 08:43:51;;;;;;;3.60;3.30;;;8.80;89.80;;;;;;10484793;28;20334;-84
2023/03/28 08:48:56;;;;;;;3.57;3.27;;;9.00;89.20;;;;;;10484602;28;20413;-83
2023/03/28 08:54:09;;;;;;;5.23;2.70;;;9.10;85.00;;;;;;10461797;28;20196;-83
2023/03/28 08:59:14;;;;;;;4.03;2.63;;;9.30;84.20;;;;;;10469147;28;20247;-83
2023/03/28 09:04:26;;;;;;;4.07;2.47;;;9.60;80.10;;;;;;10474944;28;20216;-83
2023/03/28 09:09:47;;;;;;;3.60;2.90;;;9.70;81.30;;;;;;10486613;28;20673;-83
2023/03/28 09:15:42;;;;;;;5.73;2.60;;;9.80;75.80;;;;;;10473048;28;20617;-83
2023/03/28 09:20:52;;;;;;;6.20;2.83;;;9.70;78.60;;;;;;10472022;28;20615;-83
2023/03/28 09:26:15;;;;;;;2.20;2.10;;;9.90;76.10;;;;;;10497974;28;20740;-83
2023/03/28 09:31:24;;;;;;;4.43;3.10;;;10.00;74.90;;;;;;10459932;28;20217;-83
2023/03/28 09:36:32;;;;;;;4.77;2.70;;;10.30;76.20;;;;;;10475949;28;20215;-84
2023/03/28 09:41:51;;;;;;;2.30;2.10;;;10.50;73.60;;;;;;10458631;28;20209;-83
2023/03/28 09:47:16;;;;;;;2.80;2.60;;;10.60;67.90;;;;;;10460133;28;20268;-83
2023/03/28 09:52:24;;;;;;;3.20;2.90;;;10.60;71.90;;;;;;10462573;28;20212;-83
2023/03/28 09:57:45;;;;;;;3.70;2.77;;;10.70;70.60;;;;;;10483314;28;20693;-83
2023/03/28 10:02:54;;;;;;;2.20;2.00;;;10.60;68.30;;;;;;10454456;28;20215;-86
2023/03/28 10:08:02;;;;;;;3.53;2.50;;;10.40;66.90;;;;;;10499969;28;20681;-85
2023/03/28 10:13:12;;;;;;;2.93;2.73;;;10.60;64.20;;;;;;10483350;28;20224;-85
2023/03/28 10:18:21;;;;;;;4.13;2.20;;;10.50;64.80;;;;;;10461530;28;20268;-84
2023/03/28 10:23:40;;;;;;;3.30;2.73;;;10.30;64.60;;;;;;10480714;28;20204;-84
2023/03/28 10:28:43;;;;;;;2.80;2.53;;;10.00;68.70;;;;;;10487850;28;20243;-83
2023/03/28 10:33:51;;;;;;;5.50;2.90;;;9.90;64.00;;;;;;10463361;28;20637;-83
2023/03/28 10:39:23;;;;;;;2.80;2.50;;;9.60;64.40;;;;;;10484654;28;20655;-83
2023/03/28 10:45:00;;;;;;;3.57;3.20;;;9.40;69.60;;;;;;10468129;28;20224;-83
2023/03/28 10:50:03;;;;;;;3.07;2.80;;;9.30;70.60;;;;;;10449213;28;20667;-83
2023/03/28 10:55:16;;;;;;;3.50;2.57;;;9.30;69.90;;;;;;10477299;28;20227;-83
2023/03/28 11:00:41;;;;;;;3.60;2.73;;;9.40;71.70;;;;;;10482888;28;20195;-84
2023/03/28 11:05:51;;;;;;;2.87;2.67;;;9.40;70.30;;;;;;10467720;28;20217;-83
2023/03/28 11:11:03;;;;;;;3.53;2.37;;;9.30;73.40;;;;;;10479698;28;20760;-84
2023/03/28 11:16:19;;;;;;;5.33;2.53;;;9.30;73.40;;;;;;10474739;28;20226;-83
2023/03/28 11:21:51;;;;;;;4.07;3.40;;;9.40;75.20;;;;;;10471149;28;20290;-83
2023/03/28 11:27:02;;;;;;;3.73;3.23;;;9.50;67.10;;;;;;10462327;28;20307;-84
2023/03/28 11:32:30;;;;;;;3.60;2.93;;;9.50;69.50;;;;;;10466779;28;20223;-84
2023/03/28 11:37:37;;;;;;;4.13;2.83;;;9.50;64.60;;;;;;10470039;28;20224;-83
2023/03/28 11:42:47;;;;;;;3.43;2.70;;;9.40;67.10;;;;;;10486295;28;20191;-84
2023/03/28 11:47:56;;;;;;;4.23;3.70;;;9.50;70.80;;;;;;10482327;28;20274;-84
2023/03/28 11:53:03;;;;;;;2.97;2.70;;;9.60;71.60;;;;;;10461407;28;20251;-83
2023/03/28 11:58:18;;;;;;;3.57;3.27;;;9.70;73.10;;;;;;10489624;28;20277;-83
2023/03/28 12:03:25;;;;;;;7.60;3.60;;;9.90;65.10;;;;;;10492414;28;20585;-83
2023/03/28 12:08:35;;;;;;;4.40;2.67;;;9.90;66.70;;;;;;10463828;28;20682;-83
2023/03/28 12:13:46;;;;;;;6.73;3.80;;;9.90;67.30;;;;;;10468931;28;20224;-84
2023/03/28 12:18:51;;;;;;;3.50;3.00;;;9.90;67.90;;;;;;10501224;28;20306;-84
2023/03/28 12:24:28;;;;;;;3.73;2.90;;;9.80;72.40;;;;;;10505872;28;20676;-84
2023/03/28 12:29:52;;;;;;;3.13;2.90;;;9.80;72.30;;;;;;10448096;28;20672;-83
2023/03/28 12:35:06;;;;;;;3.63;3.30;;;10.00;67.70;;;;;;10452635;28;20693;-83
2023/03/28 12:40:48;;;;;;;3.00;2.70;;;10.10;68.10;;;;;;10463364;28;20189;-83
2023/03/28 12:45:56;;;;;;;2.90;2.70;;;10.20;64.70;;;;;;10497030;28;20286;-82
2023/03/28 12:51:04;;;;;;;4.60;3.40;;;10.30;63.50;;;;;;10474126;28;20216;-82
2023/03/28 12:56:12;;;;;;;3.90;3.10;;;10.20;61.90;;;;;;10456454;28;20228;-83
2023/03/28 13:01:33;;;;;;;4.27;3.60;;;10.20;64.00;;;;;;10498304;28;20193;-82
2023/03/28 13:07:04;;;;;;;7.10;2.80;;;10.20;61.10;;;;;;10477965;28;20725;-83
2023/03/28 13:12:18;;;;;;;3.53;3.00;;;10.30;64.90;;;;;;10489889;28;20256;-83
2023/03/28 13:17:23;;;;;;;5.80;3.33;;;10.30;68.30;;;;;;10459691;28;20216;-83
2023/03/28 13:22:29;;;;;;;6.73;3.30;;;10.40;63.30;;;;;;10482240;28;20560;-82
2023/03/28 13:27:32;;;;;;;4.20;3.23;;;10.40;64.70;;;;;;10488760;28;20271;-83
2023/03/28 13:32:42;;;;;;;3.13;2.83;;;10.30;69.10;;;;;;10488385;28;20684;-83
2023/03/28 13:37:47;;;;;;;3.40;3.10;;;10.20;71.60;;;;;;10488198;28;20229;-83
2023/03/28 13:42:57;;;;;;;3.20;2.90;;;10.10;72.10;;;;;;10483228;28;20568;-83
2023/03/28 13:48:02;;;;;;;3.33;3.10;;;10.10;64.80;;;;;;10480453;28;20218;-83
2023/03/28 13:53:07;;;;;;;2.87;2.57;;;10.10;66.10;;;;;;10480866;28;20215;-83
2023/03/28 13:58:12;;;;;;;9.47;8.53;;;10.20;65.70;;;;;;10469973;28;20254;-83
2023/03/28 14:03:15;;;;;;;3.10;2.47;;;10.20;62.00;;;;;;10470662;28;20200;-83
2023/03/28 14:08:24;;;;;;;4.40;3.30;;;10.20;64.80;;;;;;10463828;28;20243;-84
2023/03/28 14:13:28;;;;;;;3.87;3.27;;;10.30;60.50;;;;;;10487942;28;20214;-83
2023/03/28 14:18:35;;;;;;;3.60;2.87;;;10.40;59.80;;;;;;10484224;28;20832;-83
2023/03/28 14:23:38;;;;;;;2.60;2.10;;;10.40;61.70;;;;;;10483502;28;20276;-83
2023/03/28 14:28:45;;;;;;;2.80;2.70;;;10.30;66.40;;;;;;10488958;28;20734;-83
2023/03/28 14:33:49;;;;;;;3.23;2.90;;;10.40;64.70;;;;;;10473425;28;20217;-83
2023/03/28 14:38:51;;;;;;;2.80;2.53;;;10.50;60.10;;;;;;10480601;28;20267;-84
2023/03/28 14:43:55;;;;;;;8.23;3.77;;;10.40;57.70;;;;;;10483358;28;20194;-82
2023/03/28 14:49:03;;;;;;;3.40;3.10;;;10.40;61.70;;;;;;10492789;28;20640;-84
2023/03/28 14:54:05;;;;;;;3.00;2.80;;;10.40;63.20;;;;;;10502469;28;20221;-84
2023/03/28 14:59:09;;;;;;;3.40;3.10;;;10.60;61.10;;;;;;10472234;28;20748;-83
2023/03/28 15:04:14;;;;;;;2.93;2.67;;;10.70;59.00;;;;;;10461217;28;20265;-82
2023/03/28 15:09:26;;;;;;;2.60;2.40;;;10.80;63.20;;;;;;10485694;28;20213;-82
2023/03/28 15:14:38;;;;;;;5.27;2.93;;;10.90;64.80;;;;;;10502607;28;20185;-82
2023/03/28 15:19:42;;;;;;;8.43;3.20;;;10.90;61.50;;;;;;10489561;28;20241;-83
2023/03/28 15:24:44;;;;;;;5.17;3.40;;;10.90;58.50;;;;;;10469945;28;20212;-82
2023/03/28 15:29:46;;;;;;;4.63;2.60;;;10.90;59.30;;;;;;10486360;28;20202;-82
2023/03/28 15:34:57;;;;;;;2.70;2.40;;;10.90;64.10;;;;;;10482525;28;20209;-82
2023/03/28 15:40:26;;;;;;;2.60;2.40;;;11.00;59.50;;;;;;10479211;28;20673;-84
2023/03/28 15:45:54;;;;;;;2.87;2.67;;;11.00;61.40;;;;;;10471998;28;20595;-84
2023/03/28 15:50:57;;;;;;;5.27;3.30;;;11.00;59.00;;;;;;10450313;28;20705;-81
2023/03/28 15:56:06;;;;;;;3.93;2.97;;;11.00;59.30;;;;;;10480247;28;20688;-82
2023/03/28 16:01:21;;;;;;;3.73;2.90;;;11.00;58.00;;;;;;10454249;28;20256;-81
2023/03/28 16:06:25;;;;;;;3.50;2.50;;;11.00;59.80;;;;;;10446142;28;20214;-82
2023/03/28 16:11:27;;;;;;;3.33;2.70;;;10.90;57.70;;;;;;10483337;28;20551;-83
2023/03/28 16:16:56;;;;;;;3.23;2.87;;;10.90;59.90;;;;;;10480713;28;20225;-83
2023/03/28 16:22:09;;;;;;;2.93;2.63;;;10.90;58.10;;;;;;10456703;28;20199;-82
2023/03/28 16:27:11;;;;;;;4.33;2.90;;;10.90;57.80;;;;;;10474040;28;21049;-79
2023/03/28 16:32:14;;;;;;;2.67;2.47;;;10.90;58.80;;;;;;10490145;28;20329;-79
2023/03/28 16:37:18;;;;;;;3.20;2.90;;;10.80;60.00;;;;;;10518091;28;20292;-79
2023/03/28 16:42:20;;;;;;;2.73;2.53;;;10.80;59.60;;;;;;10505077;28;20245;-78
2023/03/28 16:47:22;;;;;;;4.87;3.20;;;10.70;61.40;;;;;;10510444;28;20263;-79
2023/03/28 16:52:26;;;;;;;4.73;2.90;;;10.70;60.70;;;;;;10476629;28;20240;-79
2023/03/28 16:57:28;;;;;;;3.80;3.50;;;10.70;62.80;;;;;;10500579;28;20228;-79
2023/03/28 17:02:30;;;;;;;3.47;2.50;;;10.60;64.00;;;;;;10490625;28;20299;-79
2023/03/28 17:07:33;;;;;;;3.90;2.80;;;10.60;64.30;;;;;;10516160;28;20238;-79
2023/03/28 17:12:36;;;;;;;2.60;2.50;;;10.60;66.60;;;;;;10486255;28;20225;-79
2023/03/28 17:17:38;;;;;;;5.40;3.43;;;10.50;67.20;;;;;;10475320;28;20673;-79
2023/03/28 17:22:41;;;;;;;4.07;2.77;;;10.50;67.70;;;;;;10455241;28;20198;-79
2023/03/28 17:27:44;;;;;;;3.33;3.03;;;10.40;68.50;;;;;;10481977;28;20217;-79
2023/03/28 17:32:46;;;;;;;4.30;2.83;;;10.30;69.80;;;;;;10458176;28;20223;-79
2023/03/28 17:37:51;;;;;;;3.80;3.27;;;10.20;70.30;;;;;;10495980;28;20221;-78
2023/03/28 17:42:53;;;;;;;9.03;3.40;;;10.10;70.10;;;;;;10500188;28;20220;-78
2023/03/28 17:47:55;;;;;;;4.13;3.67;;;10.00;70.90;;;;;;10486008;28;20245;-78
2023/03/28 17:52:59;;;;;;;5.43;4.90;;;9.80;72.80;;;;;;10471697;28;20233;-79
2023/03/28 17:58:01;;;;;;;8.57;6.37;;;9.80;71.70;;;;;;10479262;28;20241;-79
2023/03/28 18:03:03;;;;;;;5.33;4.83;;;9.60;73.70;;;;;;10508586;28;20193;-79
2023/03/28 18:08:25;;;;;;;10.70;5.57;;;9.60;76.10;;;;;;10467641;28;20214;-79
2023/03/28 18:13:28;;;;;;;30.07;17.30;;;9.60;77.50;;;;;;10484871;28;20279;-79
2023/03/28 18:18:30;;;;;;;7.90;5.07;;;9.60;74.30;;;;;;10497922;28;20280;-80
2023/03/28 18:23:34;;;;;;;6.57;4.00;;;9.60;74.20;;;;;;10487231;28;20199;-80
2023/03/28 18:28:36;;;;;;;6.53;4.40;;;9.50;75.00;;;;;;10479624;28;20277;-81
2023/03/28 18:33:41;;;;;;;6.37;4.30;;;9.50;75.20;;;;;;10455318;28;20221;-82
2023/03/28 18:38:48;;;;;;;4.17;3.77;;;9.50;74.90;;;;;;10458959;28;20219;-80
2023/03/28 18:43:51;;;;;;;4.73;4.10;;;9.40;74.80;;;;;;10487002;28;20200;-80
2023/03/28 18:48:53;;;;;;;4.47;3.70;;;9.40;74.70;;;;;;10499173;28;20273;-79
2023/03/28 18:53:57;;;;;;;7.50;4.70;;;9.30;75.30;;;;;;10484828;28;20218;-79
2023/03/28 18:59:01;;;;;;;4.50;3.43;;;9.20;76.50;;;;;;10481181;28;20226;-78
2023/03/28 19:04:03;;;;;;;5.30;4.80;;;9.10;77.00;;;;;;10473354;28;20235;-78
2023/03/28 19:09:06;;;;;;;5.90;5.33;;;9.10;78.30;;;;;;10473608;28;20245;-78
2023/03/28 19:14:09;;;;;;;7.97;6.73;;;9.10;77.70;;;;;;10487691;28;20216;-78
2023/03/28 19:19:11;;;;;;;8.03;6.70;;;9.10;77.40;;;;;;10467680;28;20219;-80
2023/03/28 19:24:14;;;;;;;5.93;5.20;;;9.10;78.40;;;;;;10458710;28;20204;-80
2023/03/28 19:29:17;;;;;;;9.83;8.90;;;9.10;78.50;;;;;;10482156;28;20697;-80
2023/03/28 19:34:20;;;;;;;7.80;7.00;;;9.20;78.40;;;;;;10494489;28;20267;-78
2023/03/28 19:39:24;;;;;;;5.33;4.77;;;9.20;77.60;;;;;;10483735;28;20641;-79
2023/03/28 19:44:26;;;;;;;5.27;4.77;;;9.20;79.10;;;;;;10475498;28;20659;-80
2023/03/28 19:49:28;;;;;;;5.33;4.17;;;9.30;78.80;;;;;;10488695;28;20199;-79
2023/03/28 19:54:33;;;;;;;5.77;5.27;;;9.30;78.60;;;;;;10485083;28;20230;-79
2023/03/28 19:59:37;;;;;;;6.60;5.17;;;9.30;77.60;;;;;;10448709;28;20199;-78
2023/03/28 20:04:39;;;;;;;6.90;5.63;;;9.30;77.90;;;;;;10464560;28;20198;-78
2023/03/28 20:09:47;;;;;;;6.87;6.27;;;9.30;78.10;;;;;;10488065;28;20193;-80
2023/03/28 20:14:49;;;;;;;8.17;7.37;;;9.20;78.70;;;;;;10504411;28;20239;-79
2023/03/28 20:19:51;;;;;;;6.67;4.50;;;9.20;80.20;;;;;;10489318;28;20197;-79
2023/03/28 20:24:55;;;;;;;4.50;4.10;;;9.30;78.80;;;;;;10487630;28;20298;-81
2023/03/28 20:29:57;;;;;;;4.83;4.27;;;9.20;78.40;;;;;;10494082;28;20244;-81
2023/03/28 20:34:59;;;;;;;4.60;3.90;;;9.30;77.30;;;;;;10498909;28;20255;-81
2023/03/28 20:40:09;;;;;;;4.17;3.80;;;9.30;74.50;;;;;;10492773;28;20317;-81
2023/03/28 20:45:20;;;;;;;5.17;3.83;;;9.30;74.20;;;;;;10493191;28;20259;-81
2023/03/28 20:50:24;;;;;;;10.70;8.00;;;9.40;74.40;;;;;;10492777;28;20283;-79
2023/03/28 20:55:28;;;;;;;5.30;4.10;;;9.50;75.70;;;;;;10476763;28;20310;-78
2023/03/28 21:00:34;;;;;;;4.33;3.93;;;9.60;74.50;;;;;;10532730;22;20242;-79
2023/03/28 21:05:43;;;;;;;5.40;3.17;;;9.60;77.00;;;;;;10529517;28;20224;-81
2023/03/28 21:10:52;;;;;;;4.90;4.40;;;9.70;70.00;;;;;;10467013;28;20199;-80
2023/03/28 21:15:56;;;;;;;4.30;2.87;;;9.80;68.00;;;;;;10463700;28;20238;-80
2023/03/28 21:20:58;;;;;;;4.50;3.03;;;9.90;67.10;;;;;;10458848;28;20197;-80
2023/03/28 21:26:01;;;;;;;4.03;3.10;;;9.80;71.10;;;;;;10458440;28;20208;-79
2023/03/28 21:31:06;;;;;;;3.13;2.93;;;9.80;68.70;;;;;;10457817;28;20215;-79
2023/03/28 21:36:10;;;;;;;2.97;2.77;;;9.70;71.00;;;;;;10457510;28;20232;-79
2023/03/28 21:41:14;;;;;;;21.50;12.63;;;9.80;71.50;;;;;;10467550;28;20631;-81
2023/03/28 21:46:18;;;;;;;4.90;4.40;;;9.90;69.70;;;;;;10477959;28;20226;-80
2023/03/28 21:51:20;;;;;;;4.80;3.07;;;9.80;74.40;;;;;;10468055;28;20628;-81
2023/03/28 21:56:23;;;;;;;35.17;10.63;;;9.80;73.80;;;;;;10482103;28;20237;-79
2023/03/28 22:01:25;;;;;;;3.40;2.70;;;9.90;73.80;;;;;;10480501;28;20420;-81
2023/03/28 22:06:28;;;;;;;2.67;2.30;;;9.90;74.90;;;;;;10468816;28;20220;-81
2023/03/28 22:11:33;;;;;;;4.70;2.30;;;9.90;75.10;;;;;;10466816;28;20498;-81
2023/03/28 22:16:37;;;;;;;3.07;2.53;;;9.90;75.70;;;;;;10468856;28;20213;-82
2023/03/28 22:21:39;;;;;;;2.57;2.37;;;9.80;78.00;;;;;;10464429;28;20264;-81
2023/03/28 22:26:45;;;;;;;5.30;3.00;;;9.70;78.50;;;;;;10464997;28;20223;-82
2023/03/28 22:31:47;;;;;;;2.87;2.67;;;9.70;78.70;;;;;;10463733;28;20212;-80
2023/03/28 22:36:49;;;;;;;3.73;3.40;;;9.70;82.20;;;;;;10465180;28;20766;-79
2023/03/28 22:41:53;;;;;;;4.67;3.00;;;9.70;79.10;;;;;;10463647;28;20190;-81
2023/03/28 22:47:00;;;;;;;3.77;3.47;;;9.70;80.10;;;;;;10465720;28;20219;-80
2023/03/28 22:52:04;;;;;;;6.03;4.60;;;9.80;79.30;;;;;;10468776;28;20283;-81
2023/03/28 22:57:07;;;;;;;3.90;3.50;;;9.60;86.00;;;;;;10479135;28;20573;-81
2023/03/28 23:02:10;;;;;;;3.70;3.40;;;9.40;90.00;;;;;;10447160;28;20207;-80
2023/03/28 23:07:12;;;;;;;3.70;3.40;;;9.10;91.80;;;;;;10453455;28;20222;-79
2023/03/28 23:12:15;;;;;;;3.60;3.07;;;8.90;93.00;;;;;;10453678;28;20327;-80
2023/03/28 23:17:17;;;;;;;3.70;3.40;;;8.80;93.40;;;;;;10453784;28;20279;-80
2023/03/28 23:22:20;;;;;;;3.53;3.30;;;8.80;93.60;;;;;;10473376;28;20256;-81
2023/03/28 23:27:23;;;;;;;7.53;4.80;;;8.70;95.00;;;;;;10467083;28;20273;-80
2023/03/28 23:32:25;;;;;;;7.57;5.60;;;8.80;95.80;;;;;;10450379;28;20297;-80
2023/03/28 23:37:28;;;;;;;4.50;4.17;;;8.70;96.20;;;;;;10462238;28;20264;-79
2023/03/28 23:42:31;;;;;;;3.80;3.50;;;8.60;96.60;;;;;;10464170;28;20213;-80
2023/03/28 23:47:33;;;;;;;10.70;3.80;;;8.50;97.50;;;;;;10462083;28;20237;-80
2023/03/28 23:52:35;;;;;;;4.20;3.90;;;8.50;97.60;;;;;;10465118;28;20220;-80
2023/03/28 23:57:39;;;;;;;3.97;3.57;;;8.40;98.80;;;;;;10471025;28;20316;-80
